Gadsden, Arizona
Current Conditions -  °F | °C
As of 2:57 AM on Friday 24 Oct 2014 (Local Time) from KNYL Reporting Station
Clear Clear  
Wind Chill: 72°   Ceiling: Unl
Heat Index: 72°   Visibility: 10mi
Dew Point: 47°   Wind: 6mph
Humidity: 41%   Direction: 70°ENE
Pressure: 29.91"   Gusts: NA
Location:  32.55°N, 114.79°W
Report Text: KNYL 240957Z 07005KT 10SM CLR 22/08 A2991 RMK AO2 SLP126 T02220083
Loading
Personal Weather Stations






























Interactive Weather Map
Tropical Storm Tracking
New forecast layout! Learn more

10-Day Weather Forecast

Advertisements
Track Severe Weather on mobile